sensor_id;sensor_type;location;lat;lon;timestamp;temperature;humidity
22827;DHT22;11580;52.562;13.418;2022-12-18T00:02:26;3.10;27.70
22827;DHT22;11580;52.562;13.418;2022-12-18T00:04:53;3.10;27.80
22827;DHT22;11580;52.562;13.418;2022-12-18T00:07:20;3.10;27.70
22827;DHT22;11580;52.562;13.418;2022-12-18T00:09:48;3.10;27.70
22827;DHT22;11580;52.562;13.418;2022-12-18T00:12:16;3.00;27.70
22827;DHT22;11580;52.562;13.418;2022-12-18T00:14:43;3.10;27.70
22827;DHT22;11580;52.562;13.418;2022-12-18T00:17:10;3.00;27.70
22827;DHT22;11580;52.562;13.418;2022-12-18T00:19:37;3.00;27.70
22827;DHT22;11580;52.562;13.418;2022-12-18T00:22:04;3.00;27.70
22827;DHT22;11580;52.562;13.418;2022-12-18T00:24:32;3.00;27.60
22827;DHT22;11580;52.562;13.418;2022-12-18T00:27:00;3.00;27.60
22827;DHT22;11580;52.562;13.418;2022-12-18T00:29:27;3.00;27.50
22827;DHT22;11580;52.562;13.418;2022-12-18T00:31:54;3.00;27.50
22827;DHT22;11580;52.562;13.418;2022-12-18T00:34:22;3.00;27.50
22827;DHT22;11580;52.562;13.418;2022-12-18T00:36:49;3.00;27.40
22827;DHT22;11580;52.562;13.418;2022-12-18T00:39:16;2.90;27.30
22827;DHT22;11580;52.562;13.418;2022-12-18T00:41:44;2.90;27.20
22827;DHT22;11580;52.562;13.418;2022-12-18T00:44:30;2.90;27.20
22827;DHT22;11580;52.562;13.418;2022-12-18T00:46:58;2.80;27.20
22827;DHT22;11580;52.562;13.418;2022-12-18T00:49:25;2.80;27.20
22827;DHT22;11580;52.562;13.418;2022-12-18T00:51:52;2.70;27.20
22827;DHT22;11580;52.562;13.418;2022-12-18T00:54:20;2.70;27.20
22827;DHT22;11580;52.562;13.418;2022-12-18T00:56:47;2.70;27.30
22827;DHT22;11580;52.562;13.418;2022-12-18T00:59:14;2.70;27.40
22827;DHT22;11580;52.562;13.418;2022-12-18T01:01:42;2.60;27.30
22827;DHT22;11580;52.562;13.418;2022-12-18T01:04:10;2.60;27.30
22827;DHT22;11580;52.562;13.418;2022-12-18T01:06:37;2.60;27.30
22827;DHT22;11580;52.562;13.418;2022-12-18T01:09:04;2.50;27.20
22827;DHT22;11580;52.562;13.418;2022-12-18T01:11:31;2.50;27.20
22827;DHT22;11580;52.562;13.418;2022-12-18T01:13:59;2.50;27.30
22827;DHT22;11580;52.562;13.418;2022-12-18T01:16:26;2.50;27.40
22827;DHT22;11580;52.562;13.418;2022-12-18T01:18:55;2.40;27.90
22827;DHT22;11580;52.562;13.418;2022-12-18T01:21:23;2.40;27.40
22827;DHT22;11580;52.562;13.418;2022-12-18T01:23:54;2.50;27.40
22827;DHT22;11580;52.562;13.418;2022-12-18T01:26:23;2.50;27.30
22827;DHT22;11580;52.562;13.418;2022-12-18T01:28:54;2.40;27.20
22827;DHT22;11580;52.562;13.418;2022-12-18T01:31:24;2.40;27.20
22827;DHT22;11580;52.562;13.418;2022-12-18T01:33:56;2.40;27.20
22827;DHT22;11580;52.562;13.418;2022-12-18T01:36:25;2.40;27.10
22827;DHT22;11580;52.562;13.418;2022-12-18T01:38:54;2.40;27.10
22827;DHT22;11580;52.562;13.418;2022-12-18T01:41:25;2.40;27.20
22827;DHT22;11580;52.562;13.418;2022-12-18T01:47:31;2.30;26.90
22827;DHT22;11580;52.562;13.418;2022-12-18T01:50:07;2.30;27.00
22827;DHT22;11580;52.562;13.418;2022-12-18T01:52:41;2.30;27.00
22827;DHT22;11580;52.562;13.418;2022-12-18T01:55:11;2.30;27.10
22827;DHT22;11580;52.562;13.418;2022-12-18T01:57:39;2.20;27.10
22827;DHT22;11580;52.562;13.418;2022-12-18T02:00:11;2.20;27.10
22827;DHT22;11580;52.562;13.418;2022-12-18T02:02:43;2.20;27.00
22827;DHT22;11580;52.562;13.418;2022-12-18T02:05:16;2.20;26.90
22827;DHT22;11580;52.562;13.418;2022-12-18T02:07:55;2.20;26.90
22827;DHT22;11580;52.562;13.418;2022-12-18T02:10:31;2.10;26.80
22827;DHT22;11580;52.562;13.418;2022-12-18T02:13:13;2.10;26.90
22827;DHT22;11580;52.562;13.418;2022-12-18T02:15:53;2.00;26.90
22827;DHT22;11580;52.562;13.418;2022-12-18T02:18:30;2.00;26.90
22827;DHT22;11580;52.562;13.418;2022-12-18T02:21:12;2.00;27.00
22827;DHT22;11580;52.562;13.418;2022-12-18T02:23:55;2.00;27.00
22827;DHT22;11580;52.562;13.418;2022-12-18T02:26:31;2.00;27.00
22827;DHT22;11580;52.562;13.418;2022-12-18T02:29:05;1.90;27.00
22827;DHT22;11580;52.562;13.418;2022-12-18T02:31:40;1.90;27.00
22827;DHT22;11580;52.562;13.418;2022-12-18T02:38:02;1.90;27.10
22827;DHT22;11580;52.562;13.418;2022-12-18T02:40:34;1.90;27.00
22827;DHT22;11580;52.562;13.418;2022-12-18T02:43:09;1.90;27.10
22827;DHT22;11580;52.562;13.418;2022-12-18T02:45:46;1.90;27.00
22827;DHT22;11580;52.562;13.418;2022-12-18T02:48:16;1.90;27.00
22827;DHT22;11580;52.562;13.418;2022-12-18T02:50:50;1.90;27.60
22827;DHT22;11580;52.562;13.418;2022-12-18T02:53:26;2.00;27.10
22827;DHT22;11580;52.562;13.418;2022-12-18T02:56:07;2.00;27.00
22827;DHT22;11580;52.562;13.418;2022-12-18T02:58:46;2.00;27.00
22827;DHT22;11580;52.562;13.418;2022-12-18T03:01:34;1.90;26.90
22827;DHT22;11580;52.562;13.418;2022-12-18T03:04:09;1.90;26.90
22827;DHT22;11580;52.562;13.418;2022-12-18T03:06:43;2.00;27.00
22827;DHT22;11580;52.562;13.418;2022-12-18T03:09:17;1.90;27.00
22827;DHT22;11580;52.562;13.418;2022-12-18T03:11:52;2.00;27.10
22827;DHT22;11580;52.562;13.418;2022-12-18T03:14:41;2.00;27.00
22827;DHT22;11580;52.562;13.418;2022-12-18T03:17:16;1.90;26.90
22827;DHT22;11580;52.562;13.418;2022-12-18T03:19:47;1.90;26.90
22827;DHT22;11580;52.562;13.418;2022-12-18T03:22:16;1.90;26.90
22827;DHT22;11580;52.562;13.418;2022-12-18T03:24:49;1.90;26.90
22827;DHT22;11580;52.562;13.418;2022-12-18T03:27:20;1.90;26.80
22827;DHT22;11580;52.562;13.418;2022-12-18T03:29:56;1.90;26.70
22827;DHT22;11580;52.562;13.418;2022-12-18T03:32:39;1.90;26.60
22827;DHT22;11580;52.562;13.418;2022-12-18T03:35:13;1.90;26.70
22827;DHT22;11580;52.562;13.418;2022-12-18T03:37:47;1.80;26.80
22827;DHT22;11580;52.562;13.418;2022-12-18T03:40:14;1.80;26.90
22827;DHT22;11580;52.562;13.418;2022-12-18T03:42:47;1.80;27.00
22827;DHT22;11580;52.562;13.418;2022-12-18T03:45:23;1.80;27.00
22827;DHT22;11580;52.562;13.418;2022-12-18T03:47:59;1.80;27.00
22827;DHT22;11580;52.562;13.418;2022-12-18T03:50:39;1.80;27.00
22827;DHT22;11580;52.562;13.418;2022-12-18T03:53:20;1.80;26.90
22827;DHT22;11580;52.562;13.418;2022-12-18T03:55:52;1.80;26.90
22827;DHT22;11580;52.562;13.418;2022-12-18T03:58:23;1.80;26.90
22827;DHT22;11580;52.562;13.418;2022-12-18T04:01:08;1.80;26.90
22827;DHT22;11580;52.562;13.418;2022-12-18T04:03:39;1.80;26.70
22827;DHT22;11580;52.562;13.418;2022-12-18T04:06:09;1.70;26.70
22827;DHT22;11580;52.562;13.418;2022-12-18T04:08:40;1.70;26.70
22827;DHT22;11580;52.562;13.418;2022-12-18T04:11:10;1.70;26.70
22827;DHT22;11580;52.562;13.418;2022-12-18T04:13:38;1.70;26.70
22827;DHT22;11580;52.562;13.418;2022-12-18T04:16:13;1.60;26.60
22827;DHT22;11580;52.562;13.418;2022-12-18T04:18:42;1.60;26.60
22827;DHT22;11580;52.562;13.418;2022-12-18T04:21:10;1.60;26.60
22827;DHT22;11580;52.562;13.418;2022-12-18T04:23:37;1.50;26.60
22827;DHT22;11580;52.562;13.418;2022-12-18T04:26:04;1.50;26.60
22827;DHT22;11580;52.562;13.418;2022-12-18T04:28:47;1.50;26.60
22827;DHT22;11580;52.562;13.418;2022-12-18T04:31:16;1.50;26.60
22827;DHT22;11580;52.562;13.418;2022-12-18T04:33:43;1.40;26.50
22827;DHT22;11580;52.562;13.418;2022-12-18T04:36:10;1.40;26.60
22827;DHT22;11580;52.562;13.418;2022-12-18T04:38:39;1.40;26.70
22827;DHT22;11580;52.562;13.418;2022-12-18T04:41:14;1.40;26.70
22827;DHT22;11580;52.562;13.418;2022-12-18T04:43:43;1.30;26.70
22827;DHT22;11580;52.562;13.418;2022-12-18T04:46:10;1.30;26.70
22827;DHT22;11580;52.562;13.418;2022-12-18T04:48:38;1.30;26.60
22827;DHT22;11580;52.562;13.418;2022-12-18T04:51:06;1.30;26.60
22827;DHT22;11580;52.562;13.418;2022-12-18T04:53:34;1.30;26.70
22827;DHT22;11580;52.562;13.418;2022-12-18T04:56:05;1.20;26.80
22827;DHT22;11580;52.562;13.418;2022-12-18T04:58:34;1.20;26.80
22827;DHT22;11580;52.562;13.418;2022-12-18T05:01:02;1.20;26.90
22827;DHT22;11580;52.562;13.418;2022-12-18T05:03:29;1.20;26.90
22827;DHT22;11580;52.562;13.418;2022-12-18T05:05:58;1.20;27.00
22827;DHT22;11580;52.562;13.418;2022-12-18T05:08:25;1.20;27.00
22827;DHT22;11580;52.562;13.418;2022-12-18T05:10:58;1.20;27.30
22827;DHT22;11580;52.562;13.418;2022-12-18T05:13:26;1.20;27.00
22827;DHT22;11580;52.562;13.418;2022-12-18T05:15:54;1.20;27.00
22827;DHT22;11580;52.562;13.418;2022-12-18T05:18:22;1.20;27.10
22827;DHT22;11580;52.562;13.418;2022-12-18T05:20:49;1.20;27.00
22827;DHT22;11580;52.562;13.418;2022-12-18T05:23:19;1.20;27.00
22827;DHT22;11580;52.562;13.418;2022-12-18T05:25:51;1.20;26.90
22827;DHT22;11580;52.562;13.418;2022-12-18T05:28:20;1.30;26.90
22827;DHT22;11580;52.562;13.418;2022-12-18T05:30:49;1.20;26.90
22827;DHT22;11580;52.562;13.418;2022-12-18T05:33:17;1.30;27.10
22827;DHT22;11580;52.562;13.418;2022-12-18T05:35:49;1.30;27.10
22827;DHT22;11580;52.562;13.418;2022-12-18T05:38:18;1.30;27.10
22827;DHT22;11580;52.562;13.418;2022-12-18T05:40:47;1.30;27.10
22827;DHT22;11580;52.562;13.418;2022-12-18T05:43:15;1.30;27.00
22827;DHT22;11580;52.562;13.418;2022-12-18T05:45:43;1.30;27.00
22827;DHT22;11580;52.562;13.418;2022-12-18T05:48:13;1.30;27.00
22827;DHT22;11580;52.562;13.418;2022-12-18T05:50:42;1.30;27.00
22827;DHT22;11580;52.562;13.418;2022-12-18T05:53:11;1.30;27.00
22827;DHT22;11580;52.562;13.418;2022-12-18T05:55:41;1.30;27.10
22827;DHT22;11580;52.562;13.418;2022-12-18T05:58:11;1.40;27.10
22827;DHT22;11580;52.562;13.418;2022-12-18T06:00:42;1.30;27.00
22827;DHT22;11580;52.562;13.418;2022-12-18T06:03:12;1.30;26.90
22827;DHT22;11580;52.562;13.418;2022-12-18T06:05:41;1.40;27.00
22827;DHT22;11580;52.562;13.418;2022-12-18T06:08:09;1.40;27.00
22827;DHT22;11580;52.562;13.418;2022-12-18T06:10:37;1.40;27.00
22827;DHT22;11580;52.562;13.418;2022-12-18T06:13:06;1.40;26.90
22827;DHT22;11580;52.562;13.418;2022-12-18T06:15:36;1.40;26.90
22827;DHT22;11580;52.562;13.418;2022-12-18T06:18:03;1.40;26.90
22827;DHT22;11580;52.562;13.418;2022-12-18T06:20:31;1.40;26.90
22827;DHT22;11580;52.562;13.418;2022-12-18T06:22:58;1.40;27.00
22827;DHT22;11580;52.562;13.418;2022-12-18T06:25:25;1.40;27.00
22827;DHT22;11580;52.562;13.418;2022-12-18T06:27:52;1.40;26.90
22827;DHT22;11580;52.562;13.418;2022-12-18T06:30:20;1.40;26.90
22827;DHT22;11580;52.562;13.418;2022-12-18T06:32:48;1.40;27.00
22827;DHT22;11580;52.562;13.418;2022-12-18T06:35:15;1.40;27.00
22827;DHT22;11580;52.562;13.418;2022-12-18T06:37:42;1.40;27.00
22827;DHT22;11580;52.562;13.418;2022-12-18T06:40:10;1.40;26.80
22827;DHT22;11580;52.562;13.418;2022-12-18T06:42:37;1.40;26.80
22827;DHT22;11580;52.562;13.418;2022-12-18T06:45:04;1.40;27.50
22827;DHT22;11580;52.562;13.418;2022-12-18T06:47:33;1.40;27.00
22827;DHT22;11580;52.562;13.418;2022-12-18T06:50:01;1.40;26.90
22827;DHT22;11580;52.562;13.418;2022-12-18T06:52:28;1.30;26.80
22827;DHT22;11580;52.562;13.418;2022-12-18T06:54:55;1.30;26.90
22827;DHT22;11580;52.562;13.418;2022-12-18T06:57:22;1.30;27.00
22827;DHT22;11580;52.562;13.418;2022-12-18T06:59:49;1.30;27.10
22827;DHT22;11580;52.562;13.418;2022-12-18T07:02:16;1.30;27.20
22827;DHT22;11580;52.562;13.418;2022-12-18T07:04:44;1.30;27.20
22827;DHT22;11580;52.562;13.418;2022-12-18T07:07:11;1.30;27.30
22827;DHT22;11580;52.562;13.418;2022-12-18T07:09:38;1.30;27.30
22827;DHT22;11580;52.562;13.418;2022-12-18T07:12:06;1.40;27.40
22827;DHT22;11580;52.562;13.418;2022-12-18T07:14:33;1.40;27.40
22827;DHT22;11580;52.562;13.418;2022-12-18T07:17:00;1.40;27.40
22827;DHT22;11580;52.562;13.418;2022-12-18T07:19:28;1.40;27.40
22827;DHT22;11580;52.562;13.418;2022-12-18T07:21:57;1.40;27.30
22827;DHT22;11580;52.562;13.418;2022-12-18T07:24:24;1.40;27.20
22827;DHT22;11580;52.562;13.418;2022-12-18T07:26:51;1.40;27.10
22827;DHT22;11580;52.562;13.418;2022-12-18T07:29:18;1.40;27.10
22827;DHT22;11580;52.562;13.418;2022-12-18T07:31:45;1.30;27.10
22827;DHT22;11580;52.562;13.418;2022-12-18T07:34:13;1.30;27.10
22827;DHT22;11580;52.562;13.418;2022-12-18T07:36:41;1.30;27.10
22827;DHT22;11580;52.562;13.418;2022-12-18T07:39:12;1.30;27.00
22827;DHT22;11580;52.562;13.418;2022-12-18T07:41:39;1.30;27.00
22827;DHT22;11580;52.562;13.418;2022-12-18T07:44:11;1.30;27.10
22827;DHT22;11580;52.562;13.418;2022-12-18T07:46:39;1.30;27.20
22827;DHT22;11580;52.562;13.418;2022-12-18T07:49:07;1.30;27.30
22827;DHT22;11580;52.562;13.418;2022-12-18T07:51:34;1.30;27.30
22827;DHT22;11580;52.562;13.418;2022-12-18T07:54:01;1.40;27.40
22827;DHT22;11580;52.562;13.418;2022-12-18T07:56:30;1.40;27.40
22827;DHT22;11580;52.562;13.418;2022-12-18T07:58:57;1.40;27.40
22827;DHT22;11580;52.562;13.418;2022-12-18T08:01:33;1.50;27.40
22827;DHT22;11580;52.562;13.418;2022-12-18T08:04:01;1.50;27.30
22827;DHT22;11580;52.562;13.418;2022-12-18T08:06:28;1.50;27.20
22827;DHT22;11580;52.562;13.418;2022-12-18T08:08:56;1.50;27.10
22827;DHT22;11580;52.562;13.418;2022-12-18T08:11:25;1.60;27.20
22827;DHT22;11580;52.562;13.418;2022-12-18T08:13:55;1.60;27.10
22827;DHT22;11580;52.562;13.418;2022-12-18T08:16:24;1.60;27.10
22827;DHT22;11580;52.562;13.418;2022-12-18T08:18:52;1.60;27.20
22827;DHT22;11580;52.562;13.418;2022-12-18T08:21:21;1.70;27.30
22827;DHT22;11580;52.562;13.418;2022-12-18T08:23:50;1.70;27.30
22827;DHT22;11580;52.562;13.418;2022-12-18T08:26:19;1.80;27.30
22827;DHT22;11580;52.562;13.418;2022-12-18T08:28:47;1.80;27.30
22827;DHT22;11580;52.562;13.418;2022-12-18T08:31:16;1.80;27.30
22827;DHT22;11580;52.562;13.418;2022-12-18T08:33:44;1.90;27.30
22827;DHT22;11580;52.562;13.418;2022-12-18T08:36:11;1.90;27.30
22827;DHT22;11580;52.562;13.418;2022-12-18T08:38:38;1.90;27.30
22827;DHT22;11580;52.562;13.418;2022-12-18T08:41:07;2.00;27.30
22827;DHT22;11580;52.562;13.418;2022-12-18T08:43:36;2.00;27.30
22827;DHT22;11580;52.562;13.418;2022-12-18T08:46:23;2.10;27.40
22827;DHT22;11580;52.562;13.418;2022-12-18T08:48:53;2.10;27.30
22827;DHT22;11580;52.562;13.418;2022-12-18T08:51:21;2.20;27.30
22827;DHT22;11580;52.562;13.418;2022-12-18T08:53:48;2.30;27.30
22827;DHT22;11580;52.562;13.418;2022-12-18T08:56:15;2.30;27.30
22827;DHT22;11580;52.562;13.418;2022-12-18T08:58:43;2.30;27.30
22827;DHT22;11580;52.562;13.418;2022-12-18T09:01:11;2.40;27.30
22827;DHT22;11580;52.562;13.418;2022-12-18T09:03:40;2.50;27.20
22827;DHT22;11580;52.562;13.418;2022-12-18T09:06:07;2.50;27.10
22827;DHT22;11580;52.562;13.418;2022-12-18T09:08:35;2.60;27.20
22827;DHT22;11580;52.562;13.418;2022-12-18T09:11:03;2.60;27.30
22827;DHT22;11580;52.562;13.418;2022-12-18T09:13:30;2.70;27.20
22827;DHT22;11580;52.562;13.418;2022-12-18T09:15:58;2.70;27.20
22827;DHT22;11580;52.562;13.418;2022-12-18T09:18:25;2.80;27.20
22827;DHT22;11580;52.562;13.418;2022-12-18T09:20:54;2.80;27.10
22827;DHT22;11580;52.562;13.418;2022-12-18T09:23:21;2.90;27.00
22827;DHT22;11580;52.562;13.418;2022-12-18T09:25:48;2.90;26.90
22827;DHT22;11580;52.562;13.418;2022-12-18T09:28:17;2.90;26.80
22827;DHT22;11580;52.562;13.418;2022-12-18T09:30:46;3.00;26.90
22827;DHT22;11580;52.562;13.418;2022-12-18T09:33:15;3.00;26.90
22827;DHT22;11580;52.562;13.418;2022-12-18T09:35:44;3.00;26.90
22827;DHT22;11580;52.562;13.418;2022-12-18T09:38:15;3.10;26.80
22827;DHT22;11580;52.562;13.418;2022-12-18T09:40:46;3.10;26.60
22827;DHT22;11580;52.562;13.418;2022-12-18T09:43:18;3.10;26.60
22827;DHT22;11580;52.562;13.418;2022-12-18T09:45:51;3.10;26.50
22827;DHT22;11580;52.562;13.418;2022-12-18T09:48:27;3.20;26.50
22827;DHT22;11580;52.562;13.418;2022-12-18T09:51:00;3.20;26.50
22827;DHT22;11580;52.562;13.418;2022-12-18T09:53:35;3.20;26.60
22827;DHT22;11580;52.562;13.418;2022-12-18T09:56:06;3.20;26.70
22827;DHT22;11580;52.562;13.418;2022-12-18T09:58:46;3.20;26.90
22827;DHT22;11580;52.562;13.418;2022-12-18T10:01:21;3.30;26.90
22827;DHT22;11580;52.562;13.418;2022-12-18T10:03:50;3.30;26.90
22827;DHT22;11580;52.562;13.418;2022-12-18T10:06:23;3.40;27.10
22827;DHT22;11580;52.562;13.418;2022-12-18T10:09:03;3.40;26.90
22827;DHT22;11580;52.562;13.418;2022-12-18T10:11:43;3.50;26.80
22827;DHT22;11580;52.562;13.418;2022-12-18T10:14:18;3.50;26.70
22827;DHT22;11580;52.562;13.418;2022-12-18T10:17:00;3.60;26.70
22827;DHT22;11580;52.562;13.418;2022-12-18T10:19:40;3.60;26.70
22827;DHT22;11580;52.562;13.418;2022-12-18T10:22:42;3.60;26.70
22827;DHT22;11580;52.562;13.418;2022-12-18T10:25:21;3.70;26.60
22827;DHT22;11580;52.562;13.418;2022-12-18T10:27:53;3.70;27.00
22827;DHT22;11580;52.562;13.418;2022-12-18T10:30:25;3.70;27.10
22827;DHT22;11580;52.562;13.418;2022-12-18T10:32:52;3.80;27.30
22827;DHT22;11580;52.562;13.418;2022-12-18T10:35:24;3.90;27.30
22827;DHT22;11580;52.562;13.418;2022-12-18T10:38:04;3.90;27.20
22827;DHT22;11580;52.562;13.418;2022-12-18T10:40:48;3.90;26.80
22827;DHT22;11580;52.562;13.418;2022-12-18T10:43:21;4.00;26.80
22827;DHT22;11580;52.562;13.418;2022-12-18T10:46:00;4.10;27.10
22827;DHT22;11580;52.562;13.418;2022-12-18T10:48:30;4.10;26.90
22827;DHT22;11580;52.562;13.418;2022-12-18T10:51:00;4.20;27.30
22827;DHT22;11580;52.562;13.418;2022-12-18T10:53:28;4.20;27.20
22827;DHT22;11580;52.562;13.418;2022-12-18T10:56:03;4.20;27.10
22827;DHT22;11580;52.562;13.418;2022-12-18T10:58:33;4.20;26.90
22827;DHT22;11580;52.562;13.418;2022-12-18T11:01:05;4.30;27.10
22827;DHT22;11580;52.562;13.418;2022-12-18T11:03:36;4.30;27.10
22827;DHT22;11580;52.562;13.418;2022-12-18T11:06:07;4.30;27.20
22827;DHT22;11580;52.562;13.418;2022-12-18T11:08:35;4.40;27.20
22827;DHT22;11580;52.562;13.418;2022-12-18T11:11:15;4.40;27.30
22827;DHT22;11580;52.562;13.418;2022-12-18T11:13:58;4.40;26.80
22827;DHT22;11580;52.562;13.418;2022-12-18T11:16:30;4.40;26.90
22827;DHT22;11580;52.562;13.418;2022-12-18T11:19:19;4.50;27.30
22827;DHT22;11580;52.562;13.418;2022-12-18T11:21:50;4.70;26.90
22827;DHT22;11580;52.562;13.418;2022-12-18T11:24:25;4.50;27.20
22827;DHT22;11580;52.562;13.418;2022-12-18T11:26:59;4.50;26.90
22827;DHT22;11580;52.562;13.418;2022-12-18T11:29:34;4.50;27.10
22827;DHT22;11580;52.562;13.418;2022-12-18T11:32:33;4.50;26.80
22827;DHT22;11580;52.562;13.418;2022-12-18T11:35:13;4.50;26.60
22827;DHT22;11580;52.562;13.418;2022-12-18T11:37:48;4.50;26.90
22827;DHT22;11580;52.562;13.418;2022-12-18T11:40:22;4.50;27.00
22827;DHT22;11580;52.562;13.418;2022-12-18T11:43:02;4.50;27.10
22827;DHT22;11580;52.562;13.418;2022-12-18T11:45:41;4.50;26.90
22827;DHT22;11580;52.562;13.418;2022-12-18T11:48:17;4.50;26.90
22827;DHT22;11580;52.562;13.418;2022-12-18T11:50:50;4.50;27.00
22827;DHT22;11580;52.562;13.418;2022-12-18T11:53:18;4.50;27.60
22827;DHT22;11580;52.562;13.418;2022-12-18T11:56:00;4.50;27.10
22827;DHT22;11580;52.562;13.418;2022-12-18T11:58:42;4.50;26.70
22827;DHT22;11580;52.562;13.418;2022-12-18T12:01:21;4.50;26.80
22827;DHT22;11580;52.562;13.418;2022-12-18T12:04:13;4.60;27.00
22827;DHT22;11580;52.562;13.418;2022-12-18T12:06:54;4.60;26.80
22827;DHT22;11580;52.562;13.418;2022-12-18T12:09:31;4.60;26.80
22827;DHT22;11580;52.562;13.418;2022-12-18T12:12:14;4.60;26.80
22827;DHT22;11580;52.562;13.418;2022-12-18T12:14:59;4.50;26.50
22827;DHT22;11580;52.562;13.418;2022-12-18T12:17:36;4.50;26.50
22827;DHT22;11580;52.562;13.418;2022-12-18T12:20:15;4.50;26.50
22827;DHT22;11580;52.562;13.418;2022-12-18T12:22:53;4.40;26.30
22827;DHT22;11580;52.562;13.418;2022-12-18T12:25:33;4.40;26.50
22827;DHT22;11580;52.562;13.418;2022-12-18T12:28:14;4.30;26.50
22827;DHT22;11580;52.562;13.418;2022-12-18T12:31:11;4.30;26.50
22827;DHT22;11580;52.562;13.418;2022-12-18T12:33:52;4.20;26.50
22827;DHT22;11580;52.562;13.418;2022-12-18T12:36:30;4.20;26.60
22827;DHT22;11580;52.562;13.418;2022-12-18T12:39:07;4.20;26.70
22827;DHT22;11580;52.562;13.418;2022-12-18T12:41:37;4.10;26.70
22827;DHT22;11580;52.562;13.418;2022-12-18T12:44:26;4.10;27.00
22827;DHT22;11580;52.562;13.418;2022-12-18T12:46:59;4.10;27.00
22827;DHT22;11580;52.562;13.418;2022-12-18T12:49:33;4.10;27.00
22827;DHT22;11580;52.562;13.418;2022-12-18T12:52:04;4.10;27.10
22827;DHT22;11580;52.562;13.418;2022-12-18T12:54:38;4.10;27.00
22827;DHT22;11580;52.562;13.418;2022-12-18T12:57:10;4.10;27.10
22827;DHT22;11580;52.562;13.418;2022-12-18T12:59:49;4.10;27.00
22827;DHT22;11580;52.562;13.418;2022-12-18T13:02:29;4.10;27.00
22827;DHT22;11580;52.562;13.418;2022-12-18T13:05:06;4.10;27.00
22827;DHT22;11580;52.562;13.418;2022-12-18T13:07:48;4.10;27.00
22827;DHT22;11580;52.562;13.418;2022-12-18T13:10:32;4.10;27.00
22827;DHT22;11580;52.562;13.418;2022-12-18T13:13:02;4.10;26.90
22827;DHT22;11580;52.562;13.418;2022-12-18T13:15:34;4.10;27.00
22827;DHT22;11580;52.562;13.418;2022-12-18T13:18:13;4.10;27.00
22827;DHT22;11580;52.562;13.418;2022-12-18T13:20:44;4.00;26.80
22827;DHT22;11580;52.562;13.418;2022-12-18T13:23:25;4.10;27.00
22827;DHT22;11580;52.562;13.418;2022-12-18T13:25:58;4.10;26.90
22827;DHT22;11580;52.562;13.418;2022-12-18T13:28:51;4.10;27.10
22827;DHT22;11580;52.562;13.418;2022-12-18T13:34:47;4.10;26.70
22827;DHT22;11580;52.562;13.418;2022-12-18T13:37:39;4.10;27.00
22827;DHT22;11580;52.562;13.418;2022-12-18T13:43:38;4.10;26.80
22827;DHT22;11580;52.562;13.418;2022-12-18T13:46:20;4.10;26.70
22827;DHT22;11580;52.562;13.418;2022-12-18T13:48:58;4.10;26.70
22827;DHT22;11580;52.562;13.418;2022-12-18T13:51:31;4.10;26.70
22827;DHT22;11580;52.562;13.418;2022-12-18T13:54:00;4.10;26.70
22827;DHT22;11580;52.562;13.418;2022-12-18T13:56:32;4.10;26.70
22827;DHT22;11580;52.562;13.418;2022-12-18T13:59:12;4.10;26.80
22827;DHT22;11580;52.562;13.418;2022-12-18T14:01:51;4.00;26.60
22827;DHT22;11580;52.562;13.418;2022-12-18T14:04:26;4.00;26.70
22827;DHT22;11580;52.562;13.418;2022-12-18T14:06:58;4.00;26.80
22827;DHT22;11580;52.562;13.418;2022-12-18T14:09:31;3.90;26.80
22827;DHT22;11580;52.562;13.418;2022-12-18T14:12:02;3.90;26.80
22827;DHT22;11580;52.562;13.418;2022-12-18T14:14:45;3.90;27.00
22827;DHT22;11580;52.562;13.418;2022-12-18T14:17:14;3.90;26.90
22827;DHT22;11580;52.562;13.418;2022-12-18T14:19:43;3.80;26.90
22827;DHT22;11580;52.562;13.418;2022-12-18T14:22:20;3.80;26.90
22827;DHT22;11580;52.562;13.418;2022-12-18T14:25:10;3.80;26.80
22827;DHT22;11580;52.562;13.418;2022-12-18T14:27:43;3.70;26.80
22827;DHT22;11580;52.562;13.418;2022-12-18T14:30:25;3.70;26.90
22827;DHT22;11580;52.562;13.418;2022-12-18T14:33:04;3.70;27.00
22827;DHT22;11580;52.562;13.418;2022-12-18T14:35:33;3.70;27.00
22827;DHT22;11580;52.562;13.418;2022-12-18T14:38:20;3.60;27.00
22827;DHT22;11580;52.562;13.418;2022-12-18T14:40:52;3.60;27.00
22827;DHT22;11580;52.562;13.418;2022-12-18T14:43:21;3.60;27.00
22827;DHT22;11580;52.562;13.418;2022-12-18T14:45:48;3.60;27.10
22827;DHT22;11580;52.562;13.418;2022-12-18T14:48:18;3.60;27.10
22827;DHT22;11580;52.562;13.418;2022-12-18T14:50:59;3.50;27.00
22827;DHT22;11580;52.562;13.418;2022-12-18T14:53:41;3.50;26.90
22827;DHT22;11580;52.562;13.418;2022-12-18T14:56:16;3.50;26.90
22827;DHT22;11580;52.562;13.418;2022-12-18T14:58:49;3.40;26.90
22827;DHT22;11580;52.562;13.418;2022-12-18T15:01:25;3.40;27.00
22827;DHT22;11580;52.562;13.418;2022-12-18T15:03:55;3.40;27.10
22827;DHT22;11580;52.562;13.418;2022-12-18T15:06:28;3.40;27.10
22827;DHT22;11580;52.562;13.418;2022-12-18T15:08:59;3.40;27.20
22827;DHT22;11580;52.562;13.418;2022-12-18T15:11:44;3.40;27.20
22827;DHT22;11580;52.562;13.418;2022-12-18T15:14:23;3.40;27.20
22827;DHT22;11580;52.562;13.418;2022-12-18T15:16:58;3.30;27.00
22827;DHT22;11580;52.562;13.418;2022-12-18T15:19:33;3.30;27.00
22827;DHT22;11580;52.562;13.418;2022-12-18T15:22:03;3.30;27.00
22827;DHT22;11580;52.562;13.418;2022-12-18T15:24:32;3.30;27.10
22827;DHT22;11580;52.562;13.418;2022-12-18T15:27:00;3.30;27.10
22827;DHT22;11580;52.562;13.418;2022-12-18T15:29:27;3.30;27.10
22827;DHT22;11580;52.562;13.418;2022-12-18T15:32:02;3.20;27.10
22827;DHT22;11580;52.562;13.418;2022-12-18T15:34:31;3.20;27.20
22827;DHT22;11580;52.562;13.418;2022-12-18T15:36:59;3.20;27.20
22827;DHT22;11580;52.562;13.418;2022-12-18T15:39:26;3.20;27.30
22827;DHT22;11580;52.562;13.418;2022-12-18T15:41:55;3.20;27.40
22827;DHT22;11580;52.562;13.418;2022-12-18T15:44:39;3.20;27.40
22827;DHT22;11580;52.562;13.418;2022-12-18T15:47:11;3.20;27.40
22827;DHT22;11580;52.562;13.418;2022-12-18T15:49:39;3.20;27.40
22827;DHT22;11580;52.562;13.418;2022-12-18T15:52:08;3.10;27.30
22827;DHT22;11580;52.562;13.418;2022-12-18T15:54:39;3.10;27.30
22827;DHT22;11580;52.562;13.418;2022-12-18T15:57:25;3.10;27.30
22827;DHT22;11580;52.562;13.418;2022-12-18T15:59:54;3.10;27.20
22827;DHT22;11580;52.562;13.418;2022-12-18T16:02:24;3.10;27.20
22827;DHT22;11580;52.562;13.418;2022-12-18T16:04:52;3.10;27.20
22827;DHT22;11580;52.562;13.418;2022-12-18T16:07:19;3.10;27.20
22827;DHT22;11580;52.562;13.418;2022-12-18T16:09:47;3.10;27.10
22827;DHT22;11580;52.562;13.418;2022-12-18T16:12:16;3.10;27.10
22827;DHT22;11580;52.562;13.418;2022-12-18T16:14:46;3.00;27.00
22827;DHT22;11580;52.562;13.418;2022-12-18T16:17:14;3.00;27.10